sensor_id;sensor_type;location;lat;lon;timestamp;pressure;altitude;pressure_sealevel;temperature;humidity
76108;BME280;64834;52.516;10.528;2023-06-19T00:01:28;100562.94;;;21.07;50.47
76108;BME280;64834;52.516;10.528;2023-06-19T00:03:53;100558.53;;;21.10;50.14
76108;BME280;64834;52.516;10.528;2023-06-19T00:06:18;100556.72;;;21.06;50.13
76108;BME280;64834;52.516;10.528;2023-06-19T00:08:44;100554.06;;;21.08;50.26
76108;BME280;64834;52.516;10.528;2023-06-19T00:11:09;100551.50;;;21.15;49.97
76108;BME280;64834;52.516;10.528;2023-06-19T00:13:35;100554.97;;;21.11;50.47
76108;BME280;64834;52.516;10.528;2023-06-19T00:16:00;100549.56;;;21.02;50.54
76108;BME280;64834;52.516;10.528;2023-06-19T00:18:27;100554.00;;;21.00;50.52
76108;BME280;64834;52.516;10.528;2023-06-19T00:20:52;100555.78;;;21.04;50.57
76108;BME280;64834;52.516;10.528;2023-06-19T00:23:19;100551.34;;;21.00;50.49
76108;BME280;64834;52.516;10.528;2023-06-19T00:25:44;100545.06;;;20.96;50.59
76108;BME280;64834;52.516;10.528;2023-06-19T00:28:10;100543.25;;;20.92;50.70
76108;BME280;64834;52.516;10.528;2023-06-19T00:30:42;100540.63;;;20.94;50.64
76108;BME280;64834;52.516;10.528;2023-06-19T00:33:08;100543.25;;;20.92;50.72
76108;BME280;64834;52.516;10.528;2023-06-19T00:35:33;100541.53;;;20.96;50.51
76108;BME280;64834;52.516;10.528;2023-06-19T00:37:59;100540.56;;;20.88;51.12
76108;BME280;64834;52.516;10.528;2023-06-19T00:40:31;100534.38;;;20.92;51.29
76108;BME280;64834;52.516;10.528;2023-06-19T00:42:57;100543.19;;;20.86;50.90
76108;BME280;64834;52.516;10.528;2023-06-19T00:45:23;100537.81;;;20.82;51.36
76108;BME280;64834;52.516;10.528;2023-06-19T00:47:55;100547.47;;;20.73;51.46
76108;BME280;64834;52.516;10.528;2023-06-19T00:50:21;100539.53;;;20.77;51.04
76108;BME280;64834;52.516;10.528;2023-06-19T00:52:47;100531.56;;;20.75;51.47
76108;BME280;64834;52.516;10.528;2023-06-19T00:55:12;100530.72;;;20.81;51.19
76108;BME280;64834;52.516;10.528;2023-06-19T00:57:39;100532.31;;;20.66;51.52
76108;BME280;64834;52.516;10.528;2023-06-19T01:00:05;100517.31;;;20.70;51.57
76108;BME280;64834;52.516;10.528;2023-06-19T01:02:31;100518.06;;;20.61;52.13
76108;BME280;64834;52.516;10.528;2023-06-19T01:04:57;100514.50;;;20.58;51.81
76108;BME280;64834;52.516;10.528;2023-06-19T01:07:30;100511.03;;;20.65;51.88
76108;BME280;64834;52.516;10.528;2023-06-19T01:10:00;100505.69;;;20.63;51.95
76108;BME280;64834;52.516;10.528;2023-06-19T01:12:33;100499.44;;;20.58;52.05
76108;BME280;64834;52.516;10.528;2023-06-19T01:15:02;100498.63;;;20.65;51.54
76108;BME280;64834;52.516;10.528;2023-06-19T01:17:29;100503.88;;;20.59;51.76
76108;BME280;64834;52.516;10.528;2023-06-19T01:19:56;100492.34;;;20.57;52.03
76108;BME280;64834;52.516;10.528;2023-06-19T01:22:23;100489.44;;;20.40;52.76
76108;BME280;64834;52.516;10.528;2023-06-19T01:24:48;100490.41;;;20.45;52.40
76108;BME280;64834;52.516;10.528;2023-06-19T01:27:13;100485.81;;;20.35;52.63
76108;BME280;64834;52.516;10.528;2023-06-19T01:29:39;100480.63;;;20.43;52.33
76108;BME280;64834;52.516;10.528;2023-06-19T01:32:08;100477.09;;;20.44;52.35
76108;BME280;64834;52.516;10.528;2023-06-19T01:34:36;100480.63;;;20.44;52.24
76108;BME280;64834;52.516;10.528;2023-06-19T01:37:02;100471.72;;;20.41;52.39
76108;BME280;64834;52.516;10.528;2023-06-19T01:39:31;100468.25;;;20.45;52.25
76108;BME280;64834;52.516;10.528;2023-06-19T01:41:57;100460.09;;;20.33;52.51
76108;BME280;64834;52.516;10.528;2023-06-19T01:44:24;100460.13;;;20.36;52.78
76108;BME280;64834;52.516;10.528;2023-06-19T01:46:52;100453.03;;;20.33;52.62
76108;BME280;64834;52.516;10.528;2023-06-19T01:49:17;100459.31;;;20.40;52.84
76108;BME280;64834;52.516;10.528;2023-06-19T01:51:43;100456.63;;;20.37;52.55
76108;BME280;64834;52.516;10.528;2023-06-19T01:54:08;100456.56;;;20.32;52.49
76108;BME280;64834;52.516;10.528;2023-06-19T01:56:33;100454.84;;;20.37;52.62
76108;BME280;64834;52.516;10.528;2023-06-19T01:58:59;100454.88;;;20.39;52.73
76108;BME280;64834;52.516;10.528;2023-06-19T02:01:24;100447.72;;;20.36;52.65
76108;BME280;64834;52.516;10.528;2023-06-19T02:03:50;100448.53;;;20.28;52.80
76108;BME280;64834;52.516;10.528;2023-06-19T02:06:15;100451.25;;;20.32;52.77
76108;BME280;64834;52.516;10.528;2023-06-19T02:08:40;100454.81;;;20.34;52.67
76108;BME280;64834;52.516;10.528;2023-06-19T02:11:06;100448.53;;;20.29;52.84
76108;BME280;64834;52.516;10.528;2023-06-19T02:13:31;100453.91;;;20.34;52.63
76108;BME280;64834;52.516;10.528;2023-06-19T02:15:56;100459.25;;;20.35;52.99
76108;BME280;64834;52.516;10.528;2023-06-19T02:18:22;100448.59;;;20.34;52.93
76108;BME280;64834;52.516;10.528;2023-06-19T02:20:47;100451.25;;;20.34;53.00
76108;BME280;64834;52.516;10.528;2023-06-19T02:23:12;100446.75;;;20.28;53.03
76108;BME280;64834;52.516;10.528;2023-06-19T02:25:38;100450.22;;;20.23;53.41
76108;BME280;64834;52.516;10.528;2023-06-19T02:28:03;100450.28;;;20.27;53.13
76108;BME280;64834;52.516;10.528;2023-06-19T02:30:29;100450.28;;;20.27;53.35
76108;BME280;64834;52.516;10.528;2023-06-19T02:32:54;100445.84;;;20.25;53.54
76108;BME280;64834;52.516;10.528;2023-06-19T02:35:19;100448.53;;;20.28;53.57
76108;BME280;64834;52.516;10.528;2023-06-19T02:37:45;100447.53;;;20.19;54.00
76108;BME280;64834;52.516;10.528;2023-06-19T02:40:12;100451.16;;;20.26;53.59
76108;BME280;64834;52.516;10.528;2023-06-19T02:42:38;100451.78;;;20.05;54.24
76108;BME280;64834;52.516;10.528;2023-06-19T02:45:03;100457.19;;;20.13;54.02
76108;BME280;64834;52.516;10.528;2023-06-19T02:47:30;100452.72;;;20.10;54.14
76108;BME280;64834;52.516;10.528;2023-06-19T02:50:00;100454.47;;;20.07;54.41
76108;BME280;64834;52.516;10.528;2023-06-19T02:52:26;100456.41;;;20.18;54.07
76108;BME280;64834;52.516;10.528;2023-06-19T02:54:52;100457.28;;;20.20;54.07
76108;BME280;64834;52.516;10.528;2023-06-19T02:57:17;100440.28;;;20.06;54.64
76108;BME280;64834;52.516;10.528;2023-06-19T02:59:42;100441.25;;;20.13;53.92
76108;BME280;64834;52.516;10.528;2023-06-19T03:02:08;100435.13;;;20.18;53.95
76108;BME280;64834;52.516;10.528;2023-06-19T03:04:33;100424.53;;;20.21;54.02
76108;BME280;64834;52.516;10.528;2023-06-19T03:06:58;100415.66;;;20.18;54.29
76108;BME280;64834;52.516;10.528;2023-06-19T03:09:24;100431.53;;;20.13;54.60
76108;BME280;64834;52.516;10.528;2023-06-19T03:11:49;100432.44;;;20.17;54.11
76108;BME280;64834;52.516;10.528;2023-06-19T03:14:14;100435.97;;;20.17;53.98
76108;BME280;64834;52.516;10.528;2023-06-19T03:16:40;100438.56;;;20.10;54.48
76108;BME280;64834;52.516;10.528;2023-06-19T03:19:05;100437.66;;;20.11;54.43
76108;BME280;64834;52.516;10.528;2023-06-19T03:21:30;100441.44;;;20.28;54.07
76108;BME280;64834;52.516;10.528;2023-06-19T03:23:56;100421.88;;;20.20;54.46
76108;BME280;64834;52.516;10.528;2023-06-19T03:26:22;100429.84;;;20.23;54.25
76108;BME280;64834;52.516;10.528;2023-06-19T03:28:49;100428.94;;;20.18;54.49
76108;BME280;64834;52.516;10.528;2023-06-19T03:31:15;100423.63;;;20.18;54.59
76108;BME280;64834;52.516;10.528;2023-06-19T03:33:40;100432.47;;;20.18;54.63
76108;BME280;64834;52.516;10.528;2023-06-19T03:36:06;100435.09;;;20.15;54.68
76108;BME280;64834;52.516;10.528;2023-06-19T03:38:32;100427.97;;;20.13;55.16
76108;BME280;64834;52.516;10.528;2023-06-19T03:40:58;100423.56;;;20.15;54.79
76108;BME280;64834;52.516;10.528;2023-06-19T03:43:23;100419.13;;;20.14;54.92
76108;BME280;64834;52.516;10.528;2023-06-19T03:45:49;100428.81;;;20.10;54.97
76108;BME280;64834;52.516;10.528;2023-06-19T03:48:15;100428.78;;;20.06;55.57
76108;BME280;64834;52.516;10.528;2023-06-19T03:50:41;100428.72;;;20.04;55.54
76108;BME280;64834;52.516;10.528;2023-06-19T03:53:06;100427.91;;;20.08;55.11
76108;BME280;64834;52.516;10.528;2023-06-19T03:55:32;100431.38;;;20.03;55.89
76108;BME280;64834;52.516;10.528;2023-06-19T03:57:57;100432.25;;;20.02;55.78
76108;BME280;64834;52.516;10.528;2023-06-19T04:00:22;100443.75;;;20.01;55.86
76108;BME280;64834;52.516;10.528;2023-06-19T04:02:47;100449.88;;;19.97;56.07
76108;BME280;64834;52.516;10.528;2023-06-19T04:05:14;100463.16;;;19.93;56.36
76108;BME280;64834;52.516;10.528;2023-06-19T04:07:41;100462.16;;;19.87;57.04
76108;BME280;64834;52.516;10.528;2023-06-19T04:10:07;100456.81;;;19.85;57.83
76108;BME280;64834;52.516;10.528;2023-06-19T04:12:32;100468.47;;;19.93;58.62
76108;BME280;64834;52.516;10.528;2023-06-19T04:14:58;100475.47;;;19.88;59.41
76108;BME280;64834;52.516;10.528;2023-06-19T04:17:23;100473.50;;;19.77;60.43
76108;BME280;64834;52.516;10.528;2023-06-19T04:19:48;100473.72;;;19.90;59.29
76108;BME280;64834;52.516;10.528;2023-06-19T04:22:14;100481.56;;;19.83;59.69
76108;BME280;64834;52.516;10.528;2023-06-19T04:24:39;100479.72;;;19.77;60.29
76108;BME280;64834;52.516;10.528;2023-06-19T04:27:04;100481.56;;;19.83;59.96
76108;BME280;64834;52.516;10.528;2023-06-19T04:29:31;100486.19;;;19.98;59.33
76108;BME280;64834;52.516;10.528;2023-06-19T04:32:00;100488.03;;;20.00;59.71
76108;BME280;64834;52.516;10.528;2023-06-19T04:34:25;100486.16;;;19.94;60.55
76108;BME280;64834;52.516;10.528;2023-06-19T04:36:51;100489.81;;;20.01;59.84
76108;BME280;64834;52.516;10.528;2023-06-19T04:39:17;100477.41;;;20.02;61.28
76108;BME280;64834;52.516;10.528;2023-06-19T04:41:45;100468.50;;;19.98;63.34
76108;BME280;64834;52.516;10.528;2023-06-19T04:44:11;100463.69;;;19.70;64.47
76108;BME280;64834;52.516;10.528;2023-06-19T04:46:39;100458.22;;;19.60;65.29
76108;BME280;64834;52.516;10.528;2023-06-19T04:49:05;100461.53;;;19.47;66.82
76108;BME280;64834;52.516;10.528;2023-06-19T04:51:31;100458.66;;;19.35;67.50
76108;BME280;64834;52.516;10.528;2023-06-19T04:54:00;100439.66;;;19.07;68.77
76108;BME280;64834;52.516;10.528;2023-06-19T04:56:26;100425.31;;;18.98;69.02
76108;BME280;64834;52.516;10.528;2023-06-19T04:58:52;100432.34;;;18.94;69.10
76108;BME280;64834;52.516;10.528;2023-06-19T05:01:17;100442.06;;;18.92;68.73
76108;BME280;64834;52.516;10.528;2023-06-19T05:03:45;100429.63;;;18.90;69.05
76108;BME280;64834;52.516;10.528;2023-06-19T05:06:11;100448.19;;;18.91;69.59
76108;BME280;64834;52.516;10.528;2023-06-19T05:08:36;100450.94;;;18.96;69.59
76108;BME280;64834;52.516;10.528;2023-06-19T05:11:02;100453.75;;;19.05;69.79
76108;BME280;64834;52.516;10.528;2023-06-19T05:13:27;100460.00;;;19.10;69.86
76108;BME280;64834;52.516;10.528;2023-06-19T05:15:52;100456.56;;;19.14;70.09
76108;BME280;64834;52.516;10.528;2023-06-19T05:18:18;100453.81;;;19.09;70.04
76108;BME280;64834;52.516;10.528;2023-06-19T05:20:44;100458.22;;;19.07;70.89
76108;BME280;64834;52.516;10.528;2023-06-19T05:23:09;100453.78;;;19.06;70.40
76108;BME280;64834;52.516;10.528;2023-06-19T05:25:34;100456.44;;;19.06;70.04
76108;BME280;64834;52.516;10.528;2023-06-19T05:28:00;100454.66;;;19.05;69.85
76108;BME280;64834;52.516;10.528;2023-06-19T05:30:25;100460.88;;;19.09;68.98
76108;BME280;64834;52.516;10.528;2023-06-19T05:32:51;100465.31;;;19.08;69.03
76108;BME280;64834;52.516;10.528;2023-06-19T05:35:16;100463.72;;;19.18;68.98
76108;BME280;64834;52.516;10.528;2023-06-19T05:37:41;100473.44;;;19.18;68.54
76108;BME280;64834;52.516;10.528;2023-06-19T05:40:09;100477.88;;;19.20;68.30
76108;BME280;64834;52.516;10.528;2023-06-19T05:42:35;100470.00;;;19.25;68.24
76108;BME280;64834;52.516;10.528;2023-06-19T05:45:01;100483.19;;;19.20;68.97
76108;BME280;64834;52.516;10.528;2023-06-19T05:47:27;100486.81;;;19.24;69.44
76108;BME280;64834;52.516;10.528;2023-06-19T05:49:54;100490.41;;;19.29;69.88
76108;BME280;64834;52.516;10.528;2023-06-19T05:52:19;100486.25;;;19.43;69.92
76108;BME280;64834;52.516;10.528;2023-06-19T05:54:46;100501.41;;;19.50;69.44
76108;BME280;64834;52.516;10.528;2023-06-19T05:57:11;100501.31;;;19.47;69.14
76108;BME280;64834;52.516;10.528;2023-06-19T05:59:36;100511.03;;;19.44;69.32
76108;BME280;64834;52.516;10.528;2023-06-19T06:02:02;100512.84;;;19.48;69.26
76108;BME280;64834;52.516;10.528;2023-06-19T06:04:28;100512.19;;;19.59;68.79
76108;BME280;64834;52.516;10.528;2023-06-19T06:06:53;100503.50;;;19.70;68.94
76108;BME280;64834;52.516;10.528;2023-06-19T06:09:19;100510.56;;;19.67;69.18
76108;BME280;64834;52.516;10.528;2023-06-19T06:11:44;100523.56;;;19.54;67.21
76108;BME280;64834;52.516;10.528;2023-06-19T06:14:10;100538.13;;;19.76;68.29
76108;BME280;64834;52.516;10.528;2023-06-19T06:16:35;100532.75;;;19.73;70.19
76108;BME280;64834;52.516;10.528;2023-06-19T06:19:00;100539.81;;;19.71;70.53
76108;BME280;64834;52.516;10.528;2023-06-19T06:21:26;100534.47;;;19.67;70.04
76108;BME280;64834;52.516;10.528;2023-06-19T06:23:51;100531.91;;;19.75;70.03
76108;BME280;64834;52.516;10.528;2023-06-19T06:26:16;100538.28;;;19.86;69.97
76108;BME280;64834;52.516;10.528;2023-06-19T06:28:42;100544.59;;;19.94;70.24
76108;BME280;64834;52.516;10.528;2023-06-19T06:31:07;100539.47;;;20.07;72.72
76108;BME280;64834;52.516;10.528;2023-06-19T06:33:32;100522.47;;;19.96;71.28
76108;BME280;64834;52.516;10.528;2023-06-19T06:36:01;100523.56;;;20.10;70.12
76108;BME280;64834;52.516;10.528;2023-06-19T06:38:26;100513.00;;;20.13;68.43
76108;BME280;64834;52.516;10.528;2023-06-19T06:40:51;100513.00;;;20.13;68.52
76108;BME280;64834;52.516;10.528;2023-06-19T06:43:17;100511.25;;;20.16;68.73
76108;BME280;64834;52.516;10.528;2023-06-19T06:45:42;100500.72;;;20.23;69.04
76108;BME280;64834;52.516;10.528;2023-06-19T06:48:08;100499.75;;;20.17;68.32
76108;BME280;64834;52.516;10.528;2023-06-19T06:50:33;100510.28;;;20.10;67.62
76108;BME280;64834;52.516;10.528;2023-06-19T06:53:00;100518.34;;;20.17;67.20
76108;BME280;64834;52.516;10.528;2023-06-19T06:55:25;100508.72;;;20.24;66.35
76108;BME280;64834;52.516;10.528;2023-06-19T06:57:50;100496.25;;;20.20;65.37
76108;BME280;64834;52.516;10.528;2023-06-19T07:00:16;100495.34;;;20.18;66.43
76108;BME280;64834;52.516;10.528;2023-06-19T07:02:43;100503.19;;;20.07;67.66
76108;BME280;64834;52.516;10.528;2023-06-19T07:05:09;100502.19;;;19.99;68.07
76108;BME280;64834;52.516;10.528;2023-06-19T07:07:34;100505.72;;;20.00;68.42
76108;BME280;64834;52.516;10.528;2023-06-19T07:10:00;100509.50;;;20.17;68.76
76108;BME280;64834;52.516;10.528;2023-06-19T07:12:25;100503.53;;;20.35;68.13
76108;BME280;64834;52.516;10.528;2023-06-19T07:14:54;100503.88;;;20.61;66.85
76108;BME280;64834;52.516;10.528;2023-06-19T07:17:20;100509.44;;;20.81;65.89
76108;BME280;64834;52.516;10.528;2023-06-19T07:19:45;100500.78;;;21.00;66.01
76108;BME280;64834;52.516;10.528;2023-06-19T07:22:11;100510.53;;;20.99;64.82
76108;BME280;64834;52.516;10.528;2023-06-19T07:24:36;100515.13;;;21.16;65.17
76108;BME280;64834;52.516;10.528;2023-06-19T07:27:02;100503.78;;;21.32;64.23
76108;BME280;64834;52.516;10.528;2023-06-19T07:29:27;100515.63;;;21.69;62.65
76108;BME280;64834;52.516;10.528;2023-06-19T07:31:52;100524.50;;;21.73;61.96
76108;BME280;64834;52.516;10.528;2023-06-19T07:34:18;100520.22;;;21.93;62.11
76108;BME280;64834;52.516;10.528;2023-06-19T07:36:43;100531.56;;;21.66;62.24
76108;BME280;64834;52.516;10.528;2023-06-19T07:39:08;100538.56;;;21.55;62.77
76108;BME280;64834;52.516;10.528;2023-06-19T07:41:34;100548.38;;;21.61;63.57
76108;BME280;64834;52.516;10.528;2023-06-19T07:44:00;100547.66;;;21.80;62.78
76108;BME280;64834;52.516;10.528;2023-06-19T07:46:25;100545.88;;;21.77;62.51
76108;BME280;64834;52.516;10.528;2023-06-19T07:48:50;100542.25;;;21.69;61.00
76108;BME280;64834;52.516;10.528;2023-06-19T07:51:16;100549.47;;;21.86;61.23
76108;BME280;64834;52.516;10.528;2023-06-19T07:53:41;100554.81;;;21.87;60.79
76108;BME280;64834;52.516;10.528;2023-06-19T07:56:08;100550.41;;;21.88;60.78
76108;BME280;64834;52.516;10.528;2023-06-19T07:58:34;100549.50;;;21.89;61.15
76108;BME280;64834;52.516;10.528;2023-06-19T08:00:59;100551.34;;;21.99;59.98
76108;BME280;64834;52.516;10.528;2023-06-19T08:03:25;100547.97;;;22.21;59.36
76108;BME280;64834;52.516;10.528;2023-06-19T08:05:50;100556.94;;;22.32;59.98
76108;BME280;64834;52.516;10.528;2023-06-19T08:08:15;100541.03;;;22.52;59.26
76108;BME280;64834;52.516;10.528;2023-06-19T08:10:41;100538.44;;;22.71;58.69
76108;BME280;64834;52.516;10.528;2023-06-19T08:13:06;100537.59;;;22.84;57.97
76108;BME280;64834;52.516;10.528;2023-06-19T08:15:32;100546.59;;;23.32;56.72
76108;BME280;64834;52.516;10.528;2023-06-19T08:17:58;100533.31;;;23.79;55.13
76108;BME280;64834;52.516;10.528;2023-06-19T08:20:23;100535.06;;;23.99;54.73
76108;BME280;64834;52.516;10.528;2023-06-19T08:22:48;100543.09;;;23.74;55.32
76108;BME280;64834;52.516;10.528;2023-06-19T08:25:14;100533.31;;;23.82;55.41
76108;BME280;64834;52.516;10.528;2023-06-19T08:27:42;100536.84;;;23.92;56.27
76108;BME280;64834;52.516;10.528;2023-06-19T08:30:10;100535.03;;;24.20;55.32
76108;BME280;64834;52.516;10.528;2023-06-19T08:32:36;100538.56;;;24.28;55.42
76108;BME280;64834;52.516;10.528;2023-06-19T08:35:01;100533.19;;;24.42;55.03
76108;BME280;64834;52.516;10.528;2023-06-19T08:37:26;100525.00;;;24.75;53.08
76108;BME280;64834;52.516;10.528;2023-06-19T08:39:52;100523.97;;;25.07;52.60
76108;BME280;64834;52.516;10.528;2023-06-19T08:42:17;100520.81;;;25.70;51.18
76108;BME280;64834;52.516;10.528;2023-06-19T08:44:42;100531.50;;;25.79;48.30
76108;BME280;64834;52.516;10.528;2023-06-19T08:47:08;100519.47;;;26.92;47.24
76108;BME280;64834;52.516;10.528;2023-06-19T08:49:35;100519.88;;;27.26;45.86
76108;BME280;64834;52.516;10.528;2023-06-19T08:52:02;100516.91;;;27.45;45.29
76108;BME280;64834;52.516;10.528;2023-06-19T08:54:27;100520.50;;;27.98;44.23
76108;BME280;64834;52.516;10.528;2023-06-19T08:56:53;100522.03;;;28.11;43.03
76108;BME280;64834;52.516;10.528;2023-06-19T08:59:21;100509.06;;;28.33;41.57
76108;BME280;64834;52.516;10.528;2023-06-19T09:01:48;100513.59;;;28.74;41.24
76108;BME280;64834;52.516;10.528;2023-06-19T09:04:19;100516.72;;;28.96;40.77
76108;BME280;64834;52.516;10.528;2023-06-19T09:06:56;100517.47;;;29.02;41.10
76108;BME280;64834;52.516;10.528;2023-06-19T09:09:23;100514.72;;;29.06;40.01
76108;BME280;64834;52.516;10.528;2023-06-19T09:12:06;100511.75;;;28.76;40.48
76108;BME280;64834;52.516;10.528;2023-06-19T09:17:04;100513.41;;;29.22;38.85
76108;BME280;64834;52.516;10.528;2023-06-19T09:19:30;100515.41;;;29.14;38.23
76108;BME280;64834;52.516;10.528;2023-06-19T09:22:01;100506.97;;;28.89;35.92
76108;BME280;64834;52.516;10.528;2023-06-19T09:24:34;100505.97;;;28.94;35.52
76108;BME280;64834;52.516;10.528;2023-06-19T09:27:11;100504.94;;;28.58;35.42
76108;BME280;64834;52.516;10.528;2023-06-19T09:29:42;100513.38;;;28.83;36.56
76108;BME280;64834;52.516;10.528;2023-06-19T09:34:42;100502.38;;;28.52;35.00
76108;BME280;64834;52.516;10.528;2023-06-19T09:37:08;100499.19;;;28.33;35.23
76108;BME280;64834;52.516;10.528;2023-06-19T09:39:36;100499.44;;;28.19;36.71
76108;BME280;64834;52.516;10.528;2023-06-19T09:42:02;100497.44;;;28.31;35.82
76108;BME280;64834;52.516;10.528;2023-06-19T09:44:31;100493.44;;;28.05;35.52
76108;BME280;64834;52.516;10.528;2023-06-19T09:46:58;100497.75;;;28.60;34.92
76108;BME280;64834;52.516;10.528;2023-06-19T09:49:26;100504.22;;;28.93;34.77
76108;BME280;64834;52.516;10.528;2023-06-19T09:51:54;100499.38;;;29.45;33.87
76108;BME280;64834;52.516;10.528;2023-06-19T09:54:20;100505.19;;;29.99;34.29
76108;BME280;64834;52.516;10.528;2023-06-19T09:56:47;100485.59;;;30.25;35.06
76108;BME280;64834;52.516;10.528;2023-06-19T09:59:17;100489.69;;;30.06;33.69
76108;BME280;64834;52.516;10.528;2023-06-19T10:01:42;100494.75;;;30.20;33.64
76108;BME280;64834;52.516;10.528;2023-06-19T10:04:08;100504.25;;;30.00;33.77
76108;BME280;64834;52.516;10.528;2023-06-19T10:06:45;100492.09;;;29.48;34.06
76108;BME280;64834;52.516;10.528;2023-06-19T10:09:11;100493.75;;;29.55;34.45
76108;BME280;64834;52.516;10.528;2023-06-19T10:11:49;100487.44;;;28.79;35.35
76108;BME280;64834;52.516;10.528;2023-06-19T10:14:20;100497.28;;;29.20;35.89
76108;BME280;64834;52.516;10.528;2023-06-19T10:16:45;100495.53;;;28.77;36.28
76108;BME280;64834;52.516;10.528;2023-06-19T10:19:20;100500.34;;;29.05;34.33
76108;BME280;64834;52.516;10.528;2023-06-19T10:21:50;100502.91;;;29.11;33.85
76108;BME280;64834;52.516;10.528;2023-06-19T10:24:18;100515.66;;;29.42;33.47
76108;BME280;64834;52.516;10.528;2023-06-19T10:26:55;100510.13;;;29.82;33.52
76108;BME280;64834;52.516;10.528;2023-06-19T10:29:21;100505.97;;;30.03;33.84
76108;BME280;64834;52.516;10.528;2023-06-19T10:31:47;100517.09;;;29.57;34.82
76108;BME280;64834;52.516;10.528;2023-06-19T10:34:12;100509.47;;;28.99;36.30
76108;BME280;64834;52.516;10.528;2023-06-19T10:36:37;100513.25;;;28.89;35.65
76108;BME280;64834;52.516;10.528;2023-06-19T10:39:03;100509.19;;;28.70;37.88
76108;BME280;64834;52.516;10.528;2023-06-19T10:41:29;100515.69;;;29.01;36.27
76108;BME280;64834;52.516;10.528;2023-06-19T10:44:03;100513.53;;;29.17;35.87
76108;BME280;64834;52.516;10.528;2023-06-19T10:46:31;100518.03;;;29.54;34.94
76108;BME280;64834;52.516;10.528;2023-06-19T10:48:58;100510.84;;;29.17;35.83
76108;BME280;64834;52.516;10.528;2023-06-19T10:51:27;100521.72;;;29.13;36.09
76108;BME280;64834;52.516;10.528;2023-06-19T10:53:54;100519.78;;;29.19;36.19
76108;BME280;64834;52.516;10.528;2023-06-19T10:56:21;100518.66;;;28.88;37.44
76108;BME280;64834;52.516;10.528;2023-06-19T10:58:47;100513.47;;;28.79;37.78
76108;BME280;64834;52.516;10.528;2023-06-19T11:01:12;100518.75;;;28.43;37.49
76108;BME280;64834;52.516;10.528;2023-06-19T11:03:37;100519.78;;;28.77;37.64
76108;BME280;64834;52.516;10.528;2023-06-19T11:06:03;100523.88;;;28.54;37.48
76108;BME280;64834;52.516;10.528;2023-06-19T11:08:28;100518.91;;;28.35;38.15
76108;BME280;64834;52.516;10.528;2023-06-19T11:10:55;100516.66;;;28.11;38.46
76108;BME280;64834;52.516;10.528;2023-06-19T11:13:20;100514.13;;;28.49;37.73
76108;BME280;64834;52.516;10.528;2023-06-19T11:15:48;100509.66;;;28.92;37.80
76108;BME280;64834;52.516;10.528;2023-06-19T11:18:17;100508.66;;;28.54;40.39
76108;BME280;64834;52.516;10.528;2023-06-19T11:20:44;100515.06;;;28.89;38.31
76108;BME280;64834;52.516;10.528;2023-06-19T11:23:09;100509.00;;;29.19;38.03
76108;BME280;64834;52.516;10.528;2023-06-19T11:25:37;100505.19;;;29.28;36.21
76108;BME280;64834;52.516;10.528;2023-06-19T11:28:04;100511.25;;;29.38;36.98
76108;BME280;64834;52.516;10.528;2023-06-19T11:30:31;100505.91;;;28.97;37.20
76108;BME280;64834;52.516;10.528;2023-06-19T11:32:57;100506.09;;;28.88;37.87
76108;BME280;64834;52.516;10.528;2023-06-19T11:35:23;100500.97;;;29.16;38.45
76108;BME280;64834;52.516;10.528;2023-06-19T11:37:48;100507.78;;;29.33;38.04
76108;BME280;64834;52.516;10.528;2023-06-19T11:40:14;100501.75;;;29.21;37.26
76108;BME280;64834;52.516;10.528;2023-06-19T11:42:46;100503.41;;;29.27;39.50
76108;BME280;64834;52.516;10.528;2023-06-19T11:45:11;100495.34;;;28.87;38.81
76108;BME280;64834;52.516;10.528;2023-06-19T11:47:37;100504.91;;;29.01;39.98
76108;BME280;64834;52.516;10.528;2023-06-19T11:50:04;100499.19;;;29.15;36.71
76108;BME280;64834;52.516;10.528;2023-06-19T11:52:30;100495.72;;;29.10;36.96
76108;BME280;64834;52.516;10.528;2023-06-19T11:54:55;100489.09;;;28.85;37.52
76108;BME280;64834;52.516;10.528;2023-06-19T11:57:20;100497.91;;;28.91;38.55
76108;BME280;64834;52.516;10.528;2023-06-19T11:59:46;100499.16;;;28.76;36.87
76108;BME280;64834;52.516;10.528;2023-06-19T12:02:12;100496.03;;;28.96;36.96
76108;BME280;64834;52.516;10.528;2023-06-19T12:04:37;100504.88;;;29.03;38.25
76108;BME280;64834;52.516;10.528;2023-06-19T12:07:03;100500.25;;;28.68;39.49
76108;BME280;64834;52.516;10.528;2023-06-19T12:09:29;100499.56;;;28.58;40.25
76108;BME280;64834;52.516;10.528;2023-06-19T12:11:55;100490.16;;;28.79;40.62
76108;BME280;64834;52.516;10.528;2023-06-19T12:14:20;100489.78;;;29.33;39.55
76108;BME280;64834;52.516;10.528;2023-06-19T12:16:46;100503.22;;;29.35;39.28
76108;BME280;64834;52.516;10.528;2023-06-19T12:19:11;100506.50;;;29.47;40.28
76108;BME280;64834;52.516;10.528;2023-06-19T12:21:37;100505.47;;;29.17;40.46
76108;BME280;64834;52.516;10.528;2023-06-19T12:24:02;100493.81;;;29.15;39.86
76108;BME280;64834;52.516;10.528;2023-06-19T12:26:28;100501.19;;;28.67;40.97
76108;BME280;64834;52.516;10.528;2023-06-19T12:28:53;100491.94;;;28.79;41.40
76108;BME280;64834;52.516;10.528;2023-06-19T12:31:19;100507.25;;;28.76;42.21
76108;BME280;64834;52.516;10.528;2023-06-19T12:33:44;100511.47;;;28.46;42.60
76108;BME280;64834;52.516;10.528;2023-06-19T12:36:14;100510.91;;;28.74;41.94
76108;BME280;64834;52.516;10.528;2023-06-19T12:38:42;100502.31;;;29.34;40.76
76108;BME280;64834;52.516;10.528;2023-06-19T12:41:07;100501.91;;;29.52;40.23